Fedora — SLKU — position and weather

sailwx.info

Track history (hours):
 
Tides and Currents Weather Stations Pressure Air Temp Water Temp Dewpoint Dewpoint Depression Visibility Wind Speed Wind Dir Waves Ship Positions

Fedora

Last reported at 2017-Apr-27 12:44 UTC. Time now 2017-Apr-28 00:32 UTC.
Position N 41°13' E 002°19'.

Length 228 m; draft 9.2 m.

Type: Cargo ship. MMSI: 266259000.

Date/timePositionNaut miles runAvg speedWind from/ knotsBaromVisibWave heightAir tempDewpointWater temp
2017-Apr-27 12:44N 41°13' E 002°19'417.2
2017-Apr-27 12:30N 41°11' E 002°23'918.5
2017-Apr-27 12:00N 41°07' E 002°34'918.2
2017-Apr-27 11:30N 41°02' E 002°44'917.7
2017-Apr-27 10:59N 40°57' E 002°54'1317.3
2017-Apr-27 10:14N 40°50' E 003°09'417.1
2017-Apr-27 10:00N 40°48' E 003°14'816.8
2017-Apr-27 09:30N 40°44' E 003°23'26617.8
2017-Apr-26 18:31N 38°28' E 008°20'317.9
2017-Apr-26 18:22N 38°27' E 008°23'718.0
2017-Apr-26 17:59N 38°24' E 008°31'918.3
2017-Apr-26 17:30N 38°21' E 008°42'918.3
2017-Apr-26 17:00N 38°18' E 008°53'918.1
2017-Apr-26 16:30N 38°14' E 009°03'918.1
2017-Apr-26 16:00N 38°11' E 009°14'918.1
2017-Apr-26 15:30N 38°08' E 009°25'918.3
2017-Apr-26 15:00N 38°04' E 009°35'17118.0
2017-Apr-26 05:28N 37°00' E 012°56'1618.2
2017-Apr-26 04:36N 36°55' E 013°14'218.6
2017-Apr-26 04:28N 36°54' E 013°17'918.3
2017-Apr-26 04:00N 36°51' E 013°27'918.4
2017-Apr-26 03:30N 36°47' E 013°37'918.4
2017-Apr-26 03:00N 36°44' E 013°48'918.0
2017-Apr-26 02:30N 36°40' E 013°58'917.9
2017-Apr-26 02:00N 36°37' E 014°09'918.3
2017-Apr-26 01:30N 36°34' E 014°19'918.1
2017-Apr-26 01:00N 36°30' E 014°30'1917.8
2017-Apr-25 23:57N 36°23' E 014°52'  
Track history (hours):
 
Tides and Currents Weather Stations Pressure Air Temp Water Temp Dewpoint Dewpoint Depression Visibility Wind Speed Wind Dir Waves Ship Positions

Fedora

Last reported at 2017-Apr-27 12:44 UTC. Time now 2017-Apr-28 00:32 UTC.
Position N 41°13' E 002°19'.

Length 228 m; draft 9.2 m.

Type: Cargo ship. MMSI: 266259000.

Date/timePositionNaut miles runAvg speedWind from/ knotsBaromVisibWave heightAir tempDewpointWater temp
2017-Apr-27 12:44N 41°13' E 002°19'417.2
2017-Apr-27 12:30N 41°11' E 002°23'918.5
2017-Apr-27 12:00N 41°07' E 002°34'918.2
2017-Apr-27 11:30N 41°02' E 002°44'917.7
2017-Apr-27 10:59N 40°57' E 002°54'1317.3
2017-Apr-27 10:14N 40°50' E 003°09'417.1
2017-Apr-27 10:00N 40°48' E 003°14'816.8
2017-Apr-27 09:30N 40°44' E 003°23'26617.8
2017-Apr-26 18:31N 38°28' E 008°20'317.9
2017-Apr-26 18:22N 38°27' E 008°23'718.0
2017-Apr-26 17:59N 38°24' E 008°31'918.3
2017-Apr-26 17:30N 38°21' E 008°42'918.3
2017-Apr-26 17:00N 38°18' E 008°53'918.1
2017-Apr-26 16:30N 38°14' E 009°03'918.1
2017-Apr-26 16:00N 38°11' E 009°14'918.1
2017-Apr-26 15:30N 38°08' E 009°25'918.3
2017-Apr-26 15:00N 38°04' E 009°35'17118.0
2017-Apr-26 05:28N 37°00' E 012°56'1618.2
2017-Apr-26 04:36N 36°55' E 013°14'218.6
2017-Apr-26 04:28N 36°54' E 013°17'918.3
2017-Apr-26 04:00N 36°51' E 013°27'918.4
2017-Apr-26 03:30N 36°47' E 013°37'918.4
2017-Apr-26 03:00N 36°44' E 013°48'918.0
2017-Apr-26 02:30N 36°40' E 013°58'917.9
2017-Apr-26 02:00N 36°37' E 014°09'918.3
2017-Apr-26 01:30N 36°34' E 014°19'918.1
2017-Apr-26 01:00N 36°30' E 014°30'1917.8
2017-Apr-25 23:57N 36°23' E 014°52'  

Dump ship's entire track history